Atkinson, Nebraska
Current Conditions -  °F | °C
As of 7:55 PM on Sunday 21 Dec 2014 (Local Time) from KONL Reporting Station
Drizzle Drizzle  
Wind Chill: 29°   Ceiling: 5000
Heat Index: 38°   Visibility: 5mi
Dew Point: 37°   Wind: 15mph
Humidity: 98%   Direction: 190°S
Pressure: 29.5"   Gusts: 22mph
Location:  42.53°N, 98.98°W
Report Text: KONL 220155Z AUTO 19013G19KT 5SM -DZ SCT009 SCT039 OVC050 03/03 A2950 RMK AO2 T00330030
Loading
Personal Weather Stations






























Interactive Weather Map New forecast layout! Learn more

10-Day Weather Forecast

Advertisements
Track Severe Weather on mobile